TAF EGHC 050758Z 0507/0515 23012KT 9999 FEW020 BKN030
PROB40
TEMPO 0507/0512 BKN010
PROB30
TEMPO 0507/0515 25015G25KT
From batch tds/tafs/production/2024/2/5/h08_m00_tafs.cache.xml.gz
Issued (18 days ago)
Forecasts
0507/0515 23012KT 6+SM FEW2000 BKN3000

---
fcst_time_to: '2024-02-05T15:00:00Z'
sky_condition:
- - sky_cover: FEW
    cloud_base_ft_agl: '2000'
- - sky_cover: BKN
    cloud_base_ft_agl: '3000'
wind_speed_kt: '12'
fcst_time_from: '2024-02-05T07:00:00Z'
wind_dir_degrees: '230'
visibility_statute_mi: 6+

TEMPO 0507/0512 BKN1000

---
probability: '40'
fcst_time_to: '2024-02-05T12:00:00Z'
sky_condition:
- sky_cover: BKN
  cloud_base_ft_agl: '1000'
fcst_time_from: '2024-02-05T07:00:00Z'
change_indicator: TEMPO

TEMPO 0507/0515 25015G25KT

---
probability: '30'
fcst_time_to: '2024-02-05T15:00:00Z'
wind_gust_kt: '25'
wind_speed_kt: '15'
fcst_time_from: '2024-02-05T07:00:00Z'
change_indicator: TEMPO
wind_dir_degrees: '250'

talk